Terminal Aerodrome Forecast
Issued by NWS

Home | Current Version | Previous Version | Text Only | Print | Product List | Glossary On
Versions: 1 2 3 4 5 6 7 8 9 10 11 12 13 14 15 16 17 18 19 20 21
000
FTUS43 KDVN 251500 AAA
TAFCID
TAF AMD
KCID 251519Z 2515/2612 05014G22KT 2SM -SN BR BKN008 OVC015
      TEMPO 2515/2517 3/4SM -SN BR OVC005
     FM251700 03015G25KT P6SM OVC015
     FM251900 01013G22KT P6SM BKN035
     FM260300 36006KT P6SM BKN250=

USA.gov is the U.S. government's official web portal to all federal, state and local government web resources and services.